Saturday, May 28, 2016, 9:37 AM EDT
Back to Local

KMPO, Mt Pocono Pocono Mountains

Location: Pocono Summit, PA, United States Lat: 41.133
Local Time: 9:37 AM EDT (13:37 GMT) Lon: -75.383
Time Zone: US/Eastern Elev: 1915 ft

Show me the last for .
Show Decoded

2016-05-28 08:53 METAR KMPO 281253Z AUTO 26005KT 10SM CLR 23/17 A3019 RMK AO2 SLP211 T02330172
                 TSNO =
2016-05-28 07:53 METAR KMPO 281153Z AUTO 30007KT 10SM CLR 22/17 A3018 RMK AO2 SLP206 T02170167
                 10217 20167 51012 TSNO =
2016-05-28 06:53 METAR KMPO 281053Z AUTO 00000KT 10SM CLR 19/16 A3017 RMK AO2 SLP205 T01890161
                 TSNO =
2016-05-28 05:53 METAR KMPO 280953Z AUTO 26004KT 7SM CLR 17/16 A3016 RMK AO2 SLP202 T01670156
                 TSNO =
2016-05-28 04:53 METAR KMPO 280853Z AUTO 29005KT 10SM CLR 18/16 A3014 RMK AO2 SLP194 T01830161
                 53003 TSNO =
2016-05-28 03:53 METAR KMPO 280753Z AUTO 28004KT 7SM CLR 18/17 A3013 RMK AO2 SLP191 T01830172
                 TSNO =
2016-05-28 02:53 METAR KMPO 280653Z AUTO 30006KT 8SM CLR 19/17 A3013 RMK AO2 SLP190 T01940172
                 TSNO =
2016-05-28 01:53 METAR KMPO 280553Z AUTO 28008KT 8SM CLR 20/18 A3013 RMK AO2 SLP190 T02000183
                 10244 20200 53003 TSNO =
2016-05-28 00:53 METAR KMPO 280453Z AUTO 26007KT 8SM CLR 21/18 A3013 RMK AO2 SLP188 T02060183
                 402780144 TSNO =
2016-05-27 23:53 METAR KMPO 280353Z AUTO 27005KT 9SM CLR 21/18 A3012 RMK AO2 SLP188 T02110183
                 TSNO =
2016-05-27 22:53 METAR KMPO 280253Z AUTO 25005KT 10SM CLR 22/18 A3012 RMK AO2 SLP187 T02220178
                 51012 TSNO =
2016-05-27 21:53 METAR KMPO 280153Z AUTO 27005KT 10SM SCT120 21/17 A3012 RMK AO2 SLP186 T02110167
                 TSNO =
2016-05-27 20:53 METAR KMPO 280053Z AUTO 26004KT 10SM FEW043 22/17 A3010 RMK AO2 SLP181 T02170172
                 TSNO =
2016-05-27 19:53 METAR KMPO 272353Z AUTO 25004KT 10SM CLR 24/17 A3008 RMK AO2 SLP176 T02440172
                 10278 20244 53002 TSNO =
2016-05-27 18:53 METAR KMPO 272253Z AUTO 23008KT 10SM SCT050 26/17 A3007 RMK AO2 SLP172 T02560167
                 TSNO =
2016-05-27 17:53 METAR KMPO 272153Z AUTO 21009KT 10SM CLR 27/17 A3007 RMK AO2 SLP170 T02670172
                 TSNO =
2016-05-27 16:53 METAR KMPO 272053Z AUTO 19011KT 10SM CLR 26/17 A3008 RMK AO2 SLP173 T02610172
                 56007 TSNO =
2016-05-27 15:53 METAR KMPO 271953Z AUTO 22012G18KT 180V250 10SM FEW039 FEW047 FEW060 27/17 A3008
                 RMK AO2 SLP174 T02720172 TSNO =
2016-05-27 14:53 METAR KMPO 271853Z AUTO 17010G16KT 10SM SCT049 BKN060 OVC100 26/17 A3008 RMK AO2
                 SLP175 T02560172 TSNO =
2016-05-27 13:53 METAR KMPO 271753Z AUTO 22009KT 10SM SCT075 BKN090 BKN110 26/18 A3010 RMK AO2
                 RAB14E26 SLP182 P0000 60000 T02560178 10256 20183 56005 TSNO =
2016-05-27 12:53 METAR KMPO 271653Z AUTO VRB03KT 10SM SCT039 BKN047 OVC070 26/17 A3010 RMK AO2
                 SLP183 T02560167 TSNO =
2016-05-27 11:53 METAR KMPO 271553Z AUTO 24006KT 10SM FEW042 BKN070 OVC100 23/16 A3011 RMK AO2
                 SLP184 T02280156 TSNO =
2016-05-27 10:53 METAR KMPO 271453Z AUTO 24006KT 10SM CLR 23/16 A3011 RMK AO2 SLP187 T02330156
                 53001 TSNO =
2016-05-27 09:53 METAR KMPO 271353Z AUTO 27004KT 10SM CLR 22/17 A3010 RMK AO2 SLP184 T02170167
                 TSNO =

Support USWX by starting your Amazon purchase here.